Metal, Pennsylvania
Current Conditions -  °F | °C
As of 12:53 AM on Thursday 29 Jan 2015 (Local Time) from KHGR Reporting Station
Clear Clear  
Wind Chill: 11°   Ceiling: Unl
Heat Index: 18°   Visibility: 10mi
Dew Point:   Wind: 5mph
Humidity: 60%   Direction: 140°SE
Pressure: 30.31"   Gusts: NA
Location:  39.9814°N, 77.8809°W
Report Text: KHGR 290553Z AUTO 14004KT 10SM CLR M08/M14 A3031 RMK AO2 SLP286 T10781144 11033 21083 58001 TSNO
Loading
Personal Weather Stations






























Interactive Weather Map New forecast layout! Learn more

10-Day Weather Forecast

Advertisements
Track Severe Weather on mobile